Time;durP1;ratioP1;P1;durP2;ratioP2;P2;SDS_P1;SDS_P2;PMS_P1;PMS_P2;Temp;Humidity;BMP_temperature;BMP_pressure;BME280_temperature;BME280_humidity;BME280_pressure;Samples;Min_cycle;Max_cycle;Signal;HPM_P1;HPM_P2
2021/01/20 00:02:24;;;;;;;38.63;21.95;;;;;;;-145.61;100.00;68426.72;4940268;29;20435;-89
2021/01/20 00:04:49;;;;;;;35.55;21.50;;;;;;;-145.61;100.00;68426.72;4939229;29;20424;-89
2021/01/20 00:07:15;;;;;;;37.80;21.75;;;;;;;-145.61;100.00;68426.72;4939138;29;20044;-88
2021/01/20 00:09:41;;;;;;;29.75;20.38;;;;;;;-145.61;100.00;68426.72;4939079;29;20078;-88
2021/01/20 00:12:06;;;;;;;33.88;21.65;;;;;;;-145.61;100.00;68426.72;4939018;29;20055;-89
2021/01/20 00:14:31;;;;;;;33.95;22.27;;;;;;;-145.61;100.00;68426.72;4940159;29;20102;-88
2021/01/20 00:16:57;;;;;;;31.45;21.30;;;;;;;-145.61;100.00;68426.72;4939010;29;20042;-89
2021/01/20 00:19:22;;;;;;;31.83;20.80;;;;;;;-145.61;100.00;68426.72;4940026;29;20038;-89
2021/01/20 00:21:48;;;;;;;31.02;21.08;;;;;;;-145.61;100.00;68426.72;4938891;29;20301;-89
2021/01/20 00:24:14;;;;;;;30.08;20.40;;;;;;;-145.61;100.00;68426.72;4938940;29;20023;-89
2021/01/20 00:26:39;;;;;;;32.15;21.67;;;;;;;-145.61;100.00;68426.72;4938939;29;20028;-89
2021/01/20 00:29:05;;;;;;;33.08;21.35;;;;;;;-145.61;100.00;68426.72;4935615;29;20194;-89
2021/01/20 00:31:30;;;;;;;28.83;19.58;;;;;;;-145.61;100.00;68426.72;4920424;29;20027;-89
2021/01/20 00:33:56;;;;;;;30.63;20.73;;;;;;;-145.61;100.00;68426.72;4919648;29;20020;-89
2021/01/20 00:36:21;;;;;;;32.83;20.90;;;;;;;-145.61;100.00;68426.72;4919863;29;20039;-89
2021/01/20 00:38:46;;;;;;;27.92;19.73;;;;;;;-145.61;100.00;68426.72;4919789;29;20028;-89
2021/01/20 00:41:12;;;;;;;28.73;18.88;;;;;;;-145.61;100.00;68426.72;4919728;29;20024;-89
2021/01/20 00:43:37;;;;;;;29.65;20.30;;;;;;;-145.61;100.00;68426.72;4919718;29;20023;-89
2021/01/20 00:46:03;;;;;;;28.67;20.27;;;;;;;-145.61;100.00;68426.72;4922499;29;20034;-88
2021/01/20 00:48:28;;;;;;;30.48;20.60;;;;;;;-145.61;100.00;68426.72;4919582;29;20028;-89
2021/01/20 00:50:54;;;;;;;31.60;21.88;;;;;;;-145.61;100.00;68426.72;4919542;29;20063;-89
2021/01/20 00:53:20;;;;;;;44.97;23.30;;;;;;;-145.61;100.00;68426.72;4921872;29;20102;-89
2021/01/20 00:55:45;;;;;;;37.55;22.55;;;;;;;-145.61;100.00;68426.72;4923522;29;20317;-89
2021/01/20 00:58:11;;;;;;;34.40;22.45;;;;;;;-145.61;100.00;68426.72;4924439;29;20374;-89
2021/01/20 01:00:36;;;;;;;30.90;21.83;;;;;;;-145.61;100.00;68426.72;4936708;29;20111;-89
2021/01/20 01:03:02;;;;;;;35.28;21.48;;;;;;;-145.61;100.00;68426.72;4942629;29;20408;-89
2021/01/20 01:05:27;;;;;;;29.23;21.02;;;;;;;-145.61;100.00;68426.72;4944016;29;20070;-89
2021/01/20 01:07:53;;;;;;;29.52;20.48;;;;;;;-145.61;100.00;68426.72;4942338;29;20032;-89
2021/01/20 01:10:18;;;;;;;29.23;20.10;;;;;;;-145.61;100.00;68426.72;4942353;29;20087;-89
2021/01/20 01:12:44;;;;;;;28.95;19.90;;;;;;;-145.61;100.00;68426.72;4942096;29;20055;-88
2021/01/20 01:15:10;;;;;;;27.75;20.45;;;;;;;-145.61;100.00;68426.72;4942246;29;20294;-89
2021/01/20 01:17:35;;;;;;;30.73;19.45;;;;;;;-145.61;100.00;68426.72;4942155;29;20055;-88
2021/01/20 01:20:00;;;;;;;30.23;20.20;;;;;;;-145.61;100.00;68426.72;4942237;29;20035;-89
2021/01/20 01:22:26;;;;;;;26.40;18.58;;;;;;;-145.61;100.00;68426.72;4942217;29;20360;-89
2021/01/20 01:24:51;;;;;;;24.48;17.08;;;;;;;-145.61;100.00;68426.72;4942282;29;20387;-90
2021/01/20 01:27:17;;;;;;;21.00;16.40;;;;;;;-145.61;100.00;68426.72;4942109;29;20028;-89
2021/01/20 01:29:42;;;;;;;23.65;16.38;;;;;;;-145.61;100.00;68426.72;4942062;29;20331;-89
2021/01/20 01:32:07;;;;;;;24.85;17.00;;;;;;;-145.61;100.00;68426.72;4923996;29;20030;-89
2021/01/20 01:34:33;;;;;;;24.63;17.15;;;;;;;-145.61;100.00;68426.72;4922749;29;20417;-89
2021/01/20 01:36:59;;;;;;;25.98;17.20;;;;;;;-145.61;100.00;68426.72;4922915;29;20055;-89
2021/01/20 01:39:24;;;;;;;24.73;16.70;;;;;;;-145.61;100.00;68426.72;4923850;29;20107;-89
2021/01/20 01:41:50;;;;;;;25.02;16.83;;;;;;;-145.61;100.00;68426.72;4922863;29;20421;-89
2021/01/20 01:44:18;;;;;;;27.80;17.25;;;;;;;-145.61;100.00;68426.72;4927311;29;20103;-89
2021/01/20 01:46:43;;;;;;;22.75;16.63;;;;;;;-145.61;100.00;68426.72;4941813;29;20297;-88
2021/01/20 01:49:08;;;;;;;21.08;15.90;;;;;;;-145.61;100.00;68426.72;4941523;29;20038;-89
2021/01/20 01:51:34;;;;;;;27.83;16.48;;;;;;;-145.61;100.00;68426.72;4943139;29;20031;-89
2021/01/20 01:53:59;;;;;;;19.02;14.73;;;;;;;-145.61;100.00;68426.72;4941662;29;20098;-89
2021/01/20 01:56:25;;;;;;;27.48;17.30;;;;;;;-145.61;100.00;68426.72;4941476;29;20043;-88
2021/01/20 01:58:52;;;;;;;29.38;18.45;;;;;;;-145.61;100.00;68426.72;4941439;29;20118;-89
2021/01/20 02:01:20;;;;;;;25.17;17.13;;;;;;;-145.61;100.00;68426.72;4941311;29;20024;-89
2021/01/20 02:03:52;;;;;;;25.15;17.63;;;;;;;-145.61;100.00;68426.72;4942313;29;20428;-89
2021/01/20 02:06:18;;;;;;;21.77;15.57;;;;;;;-145.61;100.00;68426.72;4941249;29;20110;-89
2021/01/20 02:08:46;;;;;;;22.25;15.50;;;;;;;-145.61;100.00;68426.72;4942186;29;20115;-89
2021/01/20 02:11:21;;;;;;;21.20;15.30;;;;;;;-145.61;100.00;68426.72;4942069;29;20038;-89
2021/01/20 02:14:18;;;;;;;22.48;16.02;;;;;;;-145.61;100.00;68426.72;4941095;29;20036;-89
2021/01/20 02:16:58;;;;;;;22.80;15.20;;;;;;;-145.61;100.00;68426.72;4942209;29;20030;-89
2021/01/20 02:19:45;;;;;;;21.42;15.27;;;;;;;-145.61;100.00;68426.72;4941034;29;20023;-89
2021/01/20 02:22:21;;;;;;;18.60;13.57;;;;;;;-145.61;100.00;68426.72;4942024;29;20110;-89
2021/01/20 02:25:20;;;;;;;18.73;12.95;;;;;;;-145.61;100.00;68426.72;4941096;29;20114;-89
2021/01/20 02:28:13;;;;;;;19.67;13.70;;;;;;;-145.61;100.00;68426.72;4942040;28;20036;-89
2021/01/20 02:30:42;;;;;;;17.42;13.30;;;;;;;-145.61;100.00;68426.72;4937649;29;20434;-89
2021/01/20 02:33:09;;;;;;;16.70;13.73;;;;;;;-145.61;100.00;68426.72;4937529;29;20049;-88
2021/01/20 02:35:36;;;;;;;20.08;14.27;;;;;;;-145.61;100.00;68426.72;4922739;29;20328;-89
2021/01/20 02:38:03;;;;;;;19.08;13.68;;;;;;;-145.61;100.00;68426.72;4937709;29;20491;-88
2021/01/20 02:40:29;;;;;;;19.15;12.98;;;;;;;-145.61;100.00;68426.72;4921684;29;20045;-89
2021/01/20 02:42:55;;;;;;;17.63;13.57;;;;;;;-145.61;100.00;68426.72;4922750;29;20020;-89
2021/01/20 02:45:20;;;;;;;20.02;12.52;;;;;;;-145.61;100.00;68426.72;4954536;29;20412;-89
2021/01/20 02:47:47;;;;;;;16.10;12.02;;;;;;;-145.61;100.00;68426.72;4941525;29;20032;-89
2021/01/20 02:50:14;;;;;;;16.80;12.55;;;;;;;-145.61;100.00;68426.72;4956672;28;20405;-89
2021/01/20 02:53:03;;;;;;;19.38;12.55;;;;;;;-145.61;100.00;68426.72;4940526;29;20024;-89
2021/01/20 02:55:30;;;;;;;18.98;12.45;;;;;;;-145.61;100.00;68426.72;4934526;28;20031;-89
2021/01/20 02:58:00;;;;;;;16.20;11.82;;;;;;;-145.61;100.00;68426.72;4922520;29;20035;-89
2021/01/20 03:00:27;;;;;;;17.33;11.95;;;;;;;-145.61;100.00;68426.72;4927374;29;20035;-89
2021/01/20 03:02:54;;;;;;;17.90;11.35;;;;;;;-145.61;100.00;68426.72;4922515;29;20028;-90
2021/01/20 03:05:20;;;;;;;15.07;11.63;;;;;;;-145.61;100.00;68426.72;4921233;29;20044;-90
2021/01/20 03:07:46;;;;;;;15.90;12.13;;;;;;;-145.61;100.00;68426.72;4922321;29;20111;-90
2021/01/20 03:10:13;;;;;;;18.70;11.60;;;;;;;-145.61;100.00;68426.72;4921473;29;20119;-89
2021/01/20 03:12:41;;;;;;;15.85;12.27;;;;;;;-145.61;100.00;68426.72;4921127;29;20052;-90
2021/01/20 03:15:13;;;;;;;16.85;12.75;;;;;;;-145.61;100.00;68426.72;4921926;29;20036;-89
2021/01/20 03:17:39;;;;;;;18.55;13.05;;;;;;;-145.61;100.00;68426.72;4936586;29;20028;-89
2021/01/20 03:20:05;;;;;;;16.05;12.00;;;;;;;-145.61;100.00;68426.72;4921110;29;20127;-89
2021/01/20 03:22:31;;;;;;;22.60;14.60;;;;;;;-145.61;100.00;68426.72;4921185;29;20072;-89
2021/01/20 03:24:56;;;;;;;17.42;13.32;;;;;;;-145.61;100.00;68426.72;4931781;29;20051;-89
2021/01/20 03:27:21;;;;;;;18.85;13.43;;;;;;;-145.61;100.00;68426.72;4939862;29;20024;-89
2021/01/20 03:29:47;;;;;;;20.58;12.45;;;;;;;-145.61;100.00;68426.72;4939804;29;20032;-89
2021/01/20 03:32:12;;;;;;;16.58;12.07;;;;;;;-145.61;100.00;68426.72;4939347;29;20332;-88
2021/01/20 03:34:39;;;;;;;16.45;12.32;;;;;;;-145.61;100.00;68426.72;4940685;29;20036;-89
2021/01/20 03:37:05;;;;;;;17.52;12.75;;;;;;;-145.61;100.00;68426.72;4939690;29;20047;-89
2021/01/20 03:39:30;;;;;;;17.60;12.25;;;;;;;-145.61;100.00;68426.72;4940645;29;20027;-89
2021/01/20 03:41:57;;;;;;;21.70;12.23;;;;;;;-145.61;100.00;68426.72;4936327;29;20377;-89
2021/01/20 03:44:22;;;;;;;15.52;11.70;;;;;;;-145.61;100.00;68426.72;4922085;29;20035;-89
2021/01/20 03:46:50;;;;;;;17.80;12.32;;;;;;;-145.61;100.00;68426.72;4936338;29;20028;-88
2021/01/20 03:49:16;;;;;;;17.27;11.57;;;;;;;-145.61;100.00;68426.72;4936282;29;20412;-89
2021/01/20 03:51:41;;;;;;;25.67;11.75;;;;;;;-145.61;100.00;68426.72;4921403;29;20036;-89
2021/01/20 03:54:06;;;;;;;22.30;12.23;;;;;;;-145.61;100.00;68426.72;4920280;29;20035;-89
2021/01/20 03:56:32;;;;;;;25.48;11.82;;;;;;;-145.61;100.00;68426.72;4936172;29;20028;-88
2021/01/20 03:59:04;;;;;;;26.45;11.90;;;;;;;-145.61;100.00;68426.72;4950237;29;20085;-89
2021/01/20 04:01:29;;;;;;;22.77;11.18;;;;;;;-145.61;100.00;68426.72;4939512;29;20055;-89
2021/01/20 04:03:54;;;;;;;28.50;12.07;;;;;;;-145.61;100.00;68426.72;4940289;29;20107;-89
2021/01/20 04:06:20;;;;;;;24.70;11.68;;;;;;;-145.61;100.00;68426.72;4938717;29;20031;-89
2021/01/20 04:08:46;;;;;;;18.27;11.68;;;;;;;-145.61;100.00;68426.72;4940267;29;20059;-89
2021/01/20 04:11:13;;;;;;;20.45;11.23;;;;;;;-145.61;100.00;68426.72;4938819;29;20019;-89
2021/01/20 04:13:38;;;;;;;21.13;11.85;;;;;;;-145.61;100.00;68426.72;4940041;29;20047;-89
2021/01/20 04:16:04;;;;;;;22.60;11.23;;;;;;;-145.61;100.00;68426.72;4938967;29;20023;-89
2021/01/20 04:18:29;;;;;;;19.52;10.45;;;;;;;-145.61;100.00;68426.72;4939215;29;20091;-89
2021/01/20 04:20:55;;;;;;;21.85;11.73;;;;;;;-145.61;100.00;68426.72;4948919;29;20050;-89
2021/01/20 04:23:20;;;;;;;29.05;11.35;;;;;;;-145.61;100.00;68426.72;4939049;29;20451;-89
2021/01/20 04:25:46;;;;;;;37.25;19.65;;;;;;;-145.61;100.00;68426.72;4938779;29;20121;-88
2021/01/20 04:28:11;;;;;;;25.73;13.43;;;;;;;-145.61;100.00;68426.72;4937968;29;20031;-88
2021/01/20 04:30:36;;;;;;;33.88;14.10;;;;;;;-145.61;100.00;68426.72;4929951;29;20043;-88
2021/01/20 04:33:02;;;;;;;25.98;14.35;;;;;;;-145.61;100.00;68426.72;4927462;29;20024;-89
2021/01/20 04:35:27;;;;;;;28.00;15.70;;;;;;;-145.61;100.00;68426.72;4919829;29;20083;-89
2021/01/20 04:37:53;;;;;;;32.47;16.60;;;;;;;-145.61;100.00;68426.72;4919658;29;20298;-88
2021/01/20 04:40:19;;;;;;;26.83;14.80;;;;;;;-145.61;100.00;68426.72;4920740;29;20047;-88
2021/01/20 04:42:45;;;;;;;45.85;20.38;;;;;;;-145.61;100.00;68426.72;4920686;29;20039;-89
2021/01/20 04:45:10;;;;;;;39.92;20.30;;;;;;;-145.61;100.00;68426.72;4920839;29;20020;-88
2021/01/20 04:47:36;;;;;;;30.60;17.67;;;;;;;-145.61;100.00;68426.72;4919743;29;20032;-89
2021/01/20 04:50:04;;;;;;;35.92;18.52;;;;;;;-145.61;100.00;68426.72;4920818;29;20107;-89
2021/01/20 04:52:36;;;;;;;33.08;19.08;;;;;;;-145.61;100.00;68426.72;4920779;29;20039;-89
2021/01/20 04:55:02;;;;;;;33.42;20.23;;;;;;;-145.61;100.00;68426.72;4919702;29;20024;-89
2021/01/20 04:57:28;;;;;;;33.95;19.63;;;;;;;-145.61;100.00;68426.72;4920695;29;20152;-88
2021/01/20 04:59:54;;;;;;;32.65;18.50;;;;;;;-145.61;100.00;68426.72;4919626;29;20076;-89
2021/01/20 05:02:21;;;;;;;32.80;18.83;;;;;;;-145.61;100.00;68426.72;4919821;29;20032;-89
2021/01/20 05:04:47;;;;;;;29.02;18.23;;;;;;;-145.61;100.00;68426.72;4920742;29;20028;-89
2021/01/20 05:07:12;;;;;;;35.00;18.98;;;;;;;-145.61;100.00;68426.72;4921950;29;20423;-89
2021/01/20 05:09:38;;;;;;;29.30;19.10;;;;;;;-145.61;100.00;68426.72;4939521;29;20031;-89
2021/01/20 05:12:03;;;;;;;33.15;19.42;;;;;;;-145.61;100.00;68426.72;4939467;29;20071;-89
2021/01/20 05:14:29;;;;;;;30.20;18.58;;;;;;;-145.61;100.00;68426.72;4938469;29;20083;-89
2021/01/20 05:17:06;;;;;;;31.65;19.58;;;;;;;-145.61;100.00;68426.72;4938515;29;20031;-89
2021/01/20 05:19:40;;;;;;;31.33;20.00;;;;;;;-145.61;100.00;68426.72;4938620;29;20031;-89
2021/01/20 05:22:11;;;;;;;30.77;20.13;;;;;;;-145.61;100.00;68426.72;4938551;29;20023;-89
2021/01/20 05:24:37;;;;;;;32.58;20.75;;;;;;;-145.61;100.00;68426.72;4938660;29;20039;-89
2021/01/20 05:27:04;;;;;;;31.95;19.13;;;;;;;-145.61;100.00;68426.72;4939501;29;20498;-90
2021/01/20 05:29:30;;;;;;;35.65;22.85;;;;;;;-145.61;100.00;68426.72;4938506;29;20114;-89
2021/01/20 05:31:56;;;;;;;48.38;30.63;;;;;;;-145.61;100.00;68426.72;4938227;29;20075;-88
2021/01/20 05:34:25;;;;;;;45.17;29.20;;;;;;;-145.61;100.00;68426.72;4939332;29;20047;-88
2021/01/20 05:37:04;;;;;;;44.70;27.52;;;;;;;-145.61;100.00;68426.72;4939100;29;20032;-88
2021/01/20 05:39:31;;;;;;;43.90;26.50;;;;;;;-145.61;100.00;68426.72;4939715;29;20038;-88
2021/01/20 05:42:08;;;;;;;41.65;26.35;;;;;;;-145.61;100.00;68426.72;4940081;29;21603;-87
2021/01/20 05:44:35;;;;;;;42.30;26.63;;;;;;;-145.61;100.00;68426.72;4944590;29;20032;-89
2021/01/20 05:47:10;;;;;;;40.60;25.27;;;;;;;-145.61;100.00;68426.72;4927480;29;20119;-89
2021/01/20 05:49:36;;;;;;;40.78;27.20;;;;;;;-145.61;100.00;68426.72;4922758;29;20326;-88
2021/01/20 05:52:01;;;;;;;37.20;24.67;;;;;;;-145.61;100.00;68426.72;4934789;29;20035;-89
2021/01/20 05:54:37;;;;;;;38.35;24.30;;;;;;;-145.61;100.00;68426.72;4942484;29;20026;-87
2021/01/20 05:57:13;;;;;;;42.78;26.20;;;;;;;-145.61;100.00;68426.72;4922560;29;20111;-89
2021/01/20 05:59:39;;;;;;;55.90;31.48;;;;;;;-145.61;100.00;68426.72;4922380;29;20119;-89
2021/01/20 06:02:04;;;;;;;53.08;30.50;;;;;;;-145.61;100.00;68426.72;4923406;29;20076;-87
2021/01/20 06:04:34;;;;;;;51.75;31.70;;;;;;;-145.61;100.00;68426.72;4937236;29;20051;-87
2021/01/20 06:07:05;;;;;;;56.05;31.83;;;;;;;-145.61;100.00;68426.72;4922489;29;20040;-90
2021/01/20 06:09:33;;;;;;;55.10;31.40;;;;;;;-145.61;100.00;68426.72;4922463;29;20028;-92
2021/01/20 06:12:01;;;;;;;48.70;30.85;;;;;;;-145.61;100.00;68426.72;4926656;29;20044;-90
2021/01/20 06:14:27;;;;;;;53.53;33.00;;;;;;;-145.61;100.00;68426.72;4925611;29;20028;-91
2021/01/20 06:17:00;;;;;;;53.83;30.00;;;;;;;-145.61;100.00;68426.72;4936364;29;20032;-94
2021/01/20 06:19:27;;;;;;;51.35;27.77;;;;;;;-145.61;100.00;68426.72;4941449;29;20028;-90
2021/01/20 06:21:56;;;;;;;41.08;25.20;;;;;;;-145.61;100.00;68426.72;4941380;29;20047;-89
2021/01/20 06:24:37;;;;;;;39.08;22.55;;;;;;;-145.61;100.00;68426.72;4940849;29;20059;-89
2021/01/20 06:27:40;;;;;;;32.67;20.92;;;;;;;-145.61;100.00;68426.72;4946196;29;20039;-89
2021/01/20 06:30:16;;;;;;;41.72;20.52;;;;;;;-145.61;100.00;68426.72;4946076;29;20068;-92
2021/01/20 06:32:49;;;;;;;46.55;26.30;;;;;;;-145.61;100.00;68426.72;4939817;29;20110;-92
2021/01/20 06:35:15;;;;;;;42.47;26.73;;;;;;;-145.61;100.00;68426.72;4937849;29;20063;-91
2021/01/20 06:37:50;;;;;;;43.78;28.45;;;;;;;-145.61;100.00;68426.72;4943448;29;20028;-91
2021/01/20 06:40:20;;;;;;;27.08;19.33;;;;;;;-145.61;100.00;68426.72;4949452;29;20035;-90
2021/01/20 06:42:46;;;;;;;39.40;25.02;;;;;;;-145.61;100.00;68426.72;4944054;29;20046;-90
2021/01/20 06:45:32;;;;;;;30.83;19.40;;;;;;;-145.61;100.00;68426.72;4949642;29;20058;-90
2021/01/20 06:48:00;;;;;;;32.65;21.30;;;;;;;-145.61;100.00;68426.72;4940551;29;20035;-91
2021/01/20 06:50:33;;;;;;;23.40;17.33;;;;;;;-145.61;100.00;68426.72;4940525;29;20031;-89
2021/01/20 06:53:06;;;;;;;24.67;17.48;;;;;;;-145.61;100.00;68426.72;4941050;29;20023;-91
2021/01/20 06:55:39;;;;;;;19.60;15.20;;;;;;;-145.61;100.00;68426.72;4955742;29;20050;-91
2021/01/20 06:58:24;;;;;;;17.65;12.40;;;;;;;-145.61;100.00;68426.72;4940601;28;20484;-92
2021/01/20 07:00:59;;;;;;;19.02;11.73;;;;;;;-145.61;100.00;68426.72;4938971;29;20043;-91
2021/01/20 07:03:41;;;;;;;16.15;10.80;;;;;;;-145.61;100.00;68426.72;4923030;29;20020;-89
2021/01/20 07:06:35;;;;;;;12.77;10.27;;;;;;;-145.61;100.00;68426.72;4957890;28;20103;-89
2021/01/20 07:09:05;;;;;;;14.15;9.95;;;;;;;-145.61;100.00;68426.72;4955094;28;20103;-87
2021/01/20 07:11:31;;;;;;;12.43;9.03;;;;;;;-145.61;100.00;68426.72;4940153;29;20060;-89
2021/01/20 07:13:57;;;;;;;13.00;7.95;;;;;;;-145.61;100.00;68426.72;4940264;29;20032;-90
2021/01/20 07:16:23;;;;;;;12.52;8.75;;;;;;;-145.61;100.00;68426.72;4940024;29;20039;-88
2021/01/20 07:18:51;;;;;;;10.20;8.02;;;;;;;-145.61;100.00;68426.72;4944910;29;20375;-88
2021/01/20 07:21:17;;;;;;;10.60;8.00;;;;;;;-145.61;100.00;68426.72;4949033;28;20114;-89
2021/01/20 07:23:43;;;;;;;16.00;11.18;;;;;;;-145.61;100.00;68426.72;4931264;29;20119;-89
2021/01/20 07:26:09;;;;;;;14.73;10.68;;;;;;;-145.61;100.00;68426.72;4939076;29;20032;-90
2021/01/20 07:28:37;;;;;;;35.15;20.25;;;;;;;-145.61;100.00;68426.72;4940303;29;20039;-90
2021/01/20 07:31:12;;;;;;;56.05;36.15;;;;;;;-145.61;100.00;68426.72;4937323;29;20122;-91
2021/01/20 07:33:39;;;;;;;52.38;31.10;;;;;;;-145.61;100.00;68426.72;4940016;29;20035;-89
2021/01/20 07:36:09;;;;;;;61.17;39.40;;;;;;;-145.61;100.00;68426.72;4949828;29;20365;-90
2021/01/20 07:38:35;;;;;;;47.33;29.65;;;;;;;-145.61;100.00;68426.72;4941200;29;20035;-90
2021/01/20 07:41:12;;;;;;;46.53;31.33;;;;;;;-145.61;100.00;68426.72;4939923;29;20098;-88
2021/01/20 07:43:38;;;;;;;47.20;31.38;;;;;;;-145.61;100.00;68426.72;4944583;29;20026;-89
2021/01/20 07:46:23;;;;;;;40.97;28.08;;;;;;;-145.61;100.00;68426.72;4954895;28;20031;-90
2021/01/20 07:48:49;;;;;;;48.03;27.88;;;;;;;-145.61;100.00;68426.72;4945193;29;20032;-88
2021/01/20 07:51:17;;;;;;;46.70;27.25;;;;;;;-145.61;100.00;68426.72;4947743;29;20027;-88
2021/01/20 07:53:55;;;;;;;41.10;25.25;;;;;;;-145.61;100.00;68426.72;4949593;28;20037;-89
2021/01/20 07:56:24;;;;;;;44.85;27.95;;;;;;;-145.61;100.00;68426.72;4952616;29;20038;-91
2021/01/20 07:58:49;;;;;;;40.38;26.38;;;;;;;-145.61;100.00;68426.72;4943438;29;20031;-88
2021/01/20 08:01:30;;;;;;;44.88;28.20;;;;;;;-145.61;100.00;68426.72;4935488;29;20019;-88
2021/01/20 08:03:58;;;;;;;47.78;28.38;;;;;;;-145.61;100.00;68426.72;4955158;28;20027;-88
2021/01/20 08:06:25;;;;;;;44.10;29.58;;;;;;;-145.61;100.00;68426.72;4938162;29;20031;-90
2021/01/20 08:09:03;;;;;;;41.35;28.55;;;;;;;-145.61;100.00;68426.72;4939536;29;20094;-92
2021/01/20 08:11:30;;;;;;;35.08;24.23;;;;;;;-145.61;100.00;68426.72;4958412;28;20134;-88
2021/01/20 08:13:56;;;;;;;43.53;23.40;;;;;;;-145.61;100.00;68426.72;4953624;28;20058;-87
2021/01/20 08:16:22;;;;;;;37.55;23.23;;;;;;;-145.61;100.00;68426.72;4935143;29;20118;-89
2021/01/20 08:18:48;;;;;;;32.58;21.80;;;;;;;-145.61;100.00;68426.72;4938818;29;20101;-89
2021/01/20 08:21:14;;;;;;;55.63;34.10;;;;;;;-145.61;100.00;68426.72;4938558;29;20475;-88
2021/01/20 08:23:49;;;;;;;49.38;34.10;;;;;;;-145.61;100.00;68426.72;4938881;29;20027;-88
2021/01/20 08:26:14;;;;;;;52.55;34.78;;;;;;;-145.61;100.00;68426.72;4938749;29;20170;-92
2021/01/20 08:29:10;;;;;;;57.00;37.65;;;;;;;-145.61;100.00;68426.72;4942467;29;20114;-90
2021/01/20 08:31:42;;;;;;;54.50;37.03;;;;;;;-145.61;100.00;68426.72;4937412;29;20317;-90
2021/01/20 08:34:26;;;;;;;60.72;39.50;;;;;;;-145.61;100.00;68426.72;4939885;29;20039;-93
2021/01/20 08:37:04;;;;;;;72.60;43.05;;;;;;;-145.61;100.00;68426.72;4940356;29;20442;-91
2021/01/20 08:39:31;;;;;;;63.15;39.30;;;;;;;-145.61;100.00;68426.72;4946004;29;20019;-91
2021/01/20 08:42:15;;;;;;;64.05;41.55;;;;;;;-145.61;100.00;68426.72;4940264;29;20028;-90
2021/01/20 08:45:03;;;;;;;56.78;37.00;;;;;;;-145.61;100.00;68426.72;4944397;29;20032;-90
2021/01/20 08:47:29;;;;;;;69.88;43.38;;;;;;;-145.61;100.00;68426.72;4939247;28;20081;-91
2021/01/20 08:49:54;;;;;;;61.75;39.42;;;;;;;-145.61;100.00;68426.72;4937145;29;20031;-91
2021/01/20 08:52:20;;;;;;;63.72;40.25;;;;;;;-145.61;100.00;68426.72;4950107;28;20036;-89
2021/01/20 08:54:51;;;;;;;60.20;39.30;;;;;;;-145.61;100.00;68426.72;4942429;29;20063;-90
2021/01/20 08:57:20;;;;;;;57.42;36.67;;;;;;;-145.61;100.00;68426.72;4942675;29;20494;-88
2021/01/20 09:00:05;;;;;;;51.50;35.53;;;;;;;-145.61;100.00;68426.72;4933396;29;20031;-88
2021/01/20 09:02:30;;;;;;;57.40;35.08;;;;;;;-145.61;100.00;68426.72;4934714;29;20063;-89
2021/01/20 09:04:55;;;;;;;50.58;33.70;;;;;;;-145.61;100.00;68426.72;4941083;29;20080;-88
2021/01/20 09:07:21;;;;;;;51.42;32.85;;;;;;;-145.61;100.00;68426.72;4938595;29;20122;-89
2021/01/20 09:09:46;;;;;;;54.92;36.38;;;;;;;-145.61;100.00;68426.72;4936657;29;20037;-92
2021/01/20 09:12:12;;;;;;;50.13;33.85;;;;;;;-145.61;100.00;68426.72;4934390;29;20056;-89
2021/01/20 09:14:40;;;;;;;56.55;35.63;;;;;;;-145.61;100.00;68426.72;4940301;29;20032;-88
2021/01/20 09:17:06;;;;;;;56.00;35.58;;;;;;;-145.61;100.00;68426.72;4942165;29;20027;-88
2021/01/20 09:19:33;;;;;;;59.38;38.83;;;;;;;-145.61;100.00;68426.72;4941911;29;20032;-88
2021/01/20 09:21:58;;;;;;;56.65;37.58;;;;;;;-145.61;100.00;68426.72;4944116;29;20035;-89
2021/01/20 09:24:24;;;;;;;58.78;37.58;;;;;;;-145.61;100.00;68426.72;4937699;29;20076;-89
2021/01/20 09:26:49;;;;;;;54.38;37.95;;;;;;;-145.61;100.00;68426.72;4924700;29;20024;-88
2021/01/20 09:29:15;;;;;;;58.88;37.58;;;;;;;-145.61;100.00;68426.72;4923328;29;20030;-89
2021/01/20 09:31:40;;;;;;;53.63;37.22;;;;;;;-145.61;100.00;68426.72;4934684;29;20028;-88
2021/01/20 09:34:08;;;;;;;55.60;36.17;;;;;;;-145.61;100.00;68426.72;4939710;29;20109;-88
2021/01/20 09:36:33;;;;;;;52.17;34.20;;;;;;;-145.61;100.00;68426.72;4951785;28;20031;-89
2021/01/20 09:38:59;;;;;;;51.55;34.25;;;;;;;-145.61;100.00;68426.72;4947492;29;20083;-88
2021/01/20 09:41:28;;;;;;;57.97;36.45;;;;;;;-145.61;100.00;68426.72;4940192;29;20027;-89
2021/01/20 09:43:54;;;;;;;59.53;37.60;;;;;;;-145.61;100.00;68426.72;4936899;29;20040;-89
2021/01/20 09:46:23;;;;;;;53.28;35.45;;;;;;;-145.61;100.00;68426.72;4940912;29;20027;-89
2021/01/20 09:48:48;;;;;;;47.63;32.72;;;;;;;-145.61;100.00;68426.72;4941408;29;20035;-89
2021/01/20 09:51:14;;;;;;;45.90;29.75;;;;;;;-145.61;100.00;68426.72;4939956;29;20031;-92
2021/01/20 09:53:40;;;;;;;42.35;28.45;;;;;;;-145.61;100.00;68426.72;4941665;29;20368;-91
2021/01/20 09:56:06;;;;;;;48.20;33.53;;;;;;;-145.61;100.00;68426.72;4948113;29;20114;-90
2021/01/20 09:58:37;;;;;;;64.45;39.97;;;;;;;-145.61;100.00;68426.72;4944218;29;20039;-91
2021/01/20 10:01:04;;;;;;;53.92;37.67;;;;;;;-145.61;100.00;68426.72;4947890;29;20412;-90
2021/01/20 10:03:30;;;;;;;47.22;34.78;;;;;;;-145.61;100.00;68426.72;4941211;29;20023;-90
2021/01/20 10:05:55;;;;;;;48.20;33.55;;;;;;;-145.61;100.00;68426.72;4941823;29;20139;-90
2021/01/20 10:08:21;;;;;;;50.83;32.97;;;;;;;-145.61;100.00;68426.72;4944961;29;20040;-88
2021/01/20 10:10:47;;;;;;;39.65;27.75;;;;;;;-145.61;100.00;68426.72;4940326;29;20030;-88
2021/01/20 10:13:13;;;;;;;43.45;28.42;;;;;;;-145.61;100.00;68426.72;4940799;29;20075;-90
2021/01/20 10:15:40;;;;;;;34.55;25.35;;;;;;;-145.61;100.00;68426.72;4943531;29;20076;-90
2021/01/20 10:18:05;;;;;;;41.33;31.48;;;;;;;-145.61;100.00;68426.72;4945198;28;20028;-91
2021/01/20 10:20:31;;;;;;;38.38;28.90;;;;;;;-145.61;100.00;68426.72;4941916;29;20483;-89
2021/01/20 10:22:56;;;;;;;40.92;33.28;;;;;;;-145.61;100.00;68426.72;4954049;29;20038;-91
2021/01/20 10:25:29;;;;;;;48.22;34.53;;;;;;;-145.61;100.00;68426.72;4947288;29;20114;-90
2021/01/20 10:27:59;;;;;;;42.85;32.85;;;;;;;-145.61;100.00;68426.72;4955011;29;20297;-90
2021/01/20 10:30:25;;;;;;;40.53;31.08;;;;;;;-145.61;100.00;68426.72;4940593;29;20127;-91
2021/01/20 10:32:51;;;;;;;40.05;28.88;;;;;;;-145.61;100.00;68426.72;4943486;29;20035;-92
2021/01/20 10:35:19;;;;;;;28.20;22.20;;;;;;;-145.61;100.00;68426.72;4941032;29;20042;-91
2021/01/20 10:37:45;;;;;;;22.50;17.27;;;;;;;-145.61;100.00;68426.72;4938170;29;20031;-88
2021/01/20 10:40:11;;;;;;;27.02;19.95;;;;;;;-145.61;100.00;68426.72;4947820;29;20070;-89
2021/01/20 10:42:37;;;;;;;22.85;17.52;;;;;;;-145.61;100.00;68426.72;4941313;29;20035;-90
2021/01/20 10:45:02;;;;;;;18.77;15.10;;;;;;;-145.61;100.00;68426.72;4940775;29;20027;-90
2021/01/20 10:47:28;;;;;;;26.92;19.77;;;;;;;-145.61;100.00;68426.72;4940747;29;20032;-90
2021/01/20 10:49:53;;;;;;;21.98;16.38;;;;;;;-145.61;100.00;68426.72;4940636;29;20054;-90
2021/01/20 10:52:19;;;;;;;23.45;17.23;;;;;;;-145.61;100.00;68426.72;4941872;29;20408;-95
2021/01/20 10:54:44;;;;;;;19.65;15.77;;;;;;;-145.61;100.00;68426.72;4944053;29;20078;-95
2021/01/20 10:57:10;;;;;;;24.23;17.42;;;;;;;-145.61;100.00;68426.72;4951307;29;20039;-94
2021/01/20 10:59:41;;;;;;;17.85;14.68;;;;;;;-145.61;100.00;68426.72;4949451;29;20023;-96
2021/01/20 11:02:11;;;;;;;15.27;12.75;;;;;;;-145.61;100.00;68426.72;4930348;29;20023;-93